sensor_id;sensor_type;location;lat;lon;timestamp;temperature;humidity
53310;DHT22;39197;53.200;5.792;2023-03-20T00:01:48;6.50;99.90
53310;DHT22;39197;53.200;5.792;2023-03-20T00:04:14;6.50;99.90
53310;DHT22;39197;53.200;5.792;2023-03-20T00:06:40;6.50;99.90
53310;DHT22;39197;53.200;5.792;2023-03-20T00:09:05;6.60;99.90
53310;DHT22;39197;53.200;5.792;2023-03-20T00:11:34;6.50;99.90
53310;DHT22;39197;53.200;5.792;2023-03-20T00:14:12;6.50;99.90
53310;DHT22;39197;53.200;5.792;2023-03-20T00:16:40;6.50;99.90
53310;DHT22;39197;53.200;5.792;2023-03-20T00:19:16;6.50;99.90
53310;DHT22;39197;53.200;5.792;2023-03-20T00:21:42;6.50;99.90
53310;DHT22;39197;53.200;5.792;2023-03-20T00:24:08;6.60;99.90
53310;DHT22;39197;53.200;5.792;2023-03-20T00:26:35;6.60;99.90
53310;DHT22;39197;53.200;5.792;2023-03-20T00:29:03;6.60;99.90
53310;DHT22;39197;53.200;5.792;2023-03-20T00:31:32;6.60;99.90
53310;DHT22;39197;53.200;5.792;2023-03-20T00:34:00;6.70;99.90
53310;DHT22;39197;53.200;5.792;2023-03-20T00:36:27;6.60;99.90
53310;DHT22;39197;53.200;5.792;2023-03-20T00:38:53;6.70;99.90
53310;DHT22;39197;53.200;5.792;2023-03-20T00:41:22;6.70;99.90
53310;DHT22;39197;53.200;5.792;2023-03-20T00:44:36;6.70;99.90
53310;DHT22;39197;53.200;5.792;2023-03-20T00:46:38;6.70;99.90
53310;DHT22;39197;53.200;5.792;2023-03-20T00:49:04;6.70;99.90
53310;DHT22;39197;53.200;5.792;2023-03-20T00:51:29;6.80;99.90
53310;DHT22;39197;53.200;5.792;2023-03-20T00:53:56;6.70;99.90
53310;DHT22;39197;53.200;5.792;2023-03-20T00:56:34;6.80;99.90
53310;DHT22;39197;53.200;5.792;2023-03-20T00:59:01;6.90;99.90
53310;DHT22;39197;53.200;5.792;2023-03-20T01:01:29;6.80;99.90
53310;DHT22;39197;53.200;5.792;2023-03-20T01:03:56;6.90;99.90
53310;DHT22;39197;53.200;5.792;2023-03-20T01:06:22;6.90;99.90
53310;DHT22;39197;53.200;5.792;2023-03-20T01:08:47;7.00;99.90
53310;DHT22;39197;53.200;5.792;2023-03-20T01:11:15;7.00;99.90
53310;DHT22;39197;53.200;5.792;2023-03-20T01:13:44;7.00;99.90
53310;DHT22;39197;53.200;5.792;2023-03-20T01:16:19;7.00;99.90
53310;DHT22;39197;53.200;5.792;2023-03-20T01:18:46;7.00;99.90
53310;DHT22;39197;53.200;5.792;2023-03-20T01:21:11;7.00;99.90
53310;DHT22;39197;53.200;5.792;2023-03-20T01:23:39;7.00;99.90
53310;DHT22;39197;53.200;5.792;2023-03-20T01:28:42;7.10;99.90
53310;DHT22;39197;53.200;5.792;2023-03-20T01:31:08;7.10;99.90
53310;DHT22;39197;53.200;5.792;2023-03-20T01:33:34;7.10;99.90
53310;DHT22;39197;53.200;5.792;2023-03-20T01:35:59;7.10;99.90
53310;DHT22;39197;53.200;5.792;2023-03-20T01:38:26;7.10;99.90
53310;DHT22;39197;53.200;5.792;2023-03-20T01:43:22;7.10;99.90
53310;DHT22;39197;53.200;5.792;2023-03-20T01:54:00;7.10;99.90
53310;DHT22;39197;53.200;5.792;2023-03-20T01:56:29;7.10;99.90
53310;DHT22;39197;53.200;5.792;2023-03-20T01:59:01;7.20;99.90
53310;DHT22;39197;53.200;5.792;2023-03-20T02:01:28;7.20;99.90
53310;DHT22;39197;53.200;5.792;2023-03-20T02:03:56;7.20;99.90
53310;DHT22;39197;53.200;5.792;2023-03-20T02:06:23;7.20;99.90
53310;DHT22;39197;53.200;5.792;2023-03-20T02:08:51;7.20;99.90
53310;DHT22;39197;53.200;5.792;2023-03-20T02:11:20;7.20;99.90
53310;DHT22;39197;53.200;5.792;2023-03-20T02:13:51;7.20;99.90
53310;DHT22;39197;53.200;5.792;2023-03-20T02:16:18;7.20;99.90
53310;DHT22;39197;53.200;5.792;2023-03-20T02:18:47;7.30;99.90
53310;DHT22;39197;53.200;5.792;2023-03-20T02:41:27;7.30;99.90
53310;DHT22;39197;53.200;5.792;2023-03-20T02:44:17;7.40;99.90
53310;DHT22;39197;53.200;5.792;2023-03-20T02:49:39;7.30;99.90
53310;DHT22;39197;53.200;5.792;2023-03-20T02:52:22;7.30;99.90
53310;DHT22;39197;53.200;5.792;2023-03-20T02:57:50;7.40;99.90
53310;DHT22;39197;53.200;5.792;2023-03-20T03:00:28;7.50;99.90
53310;DHT22;39197;53.200;5.792;2023-03-20T03:03:22;7.50;99.90
53310;DHT22;39197;53.200;5.792;2023-03-20T03:05:57;7.50;99.90
53310;DHT22;39197;53.200;5.792;2023-03-20T03:08:27;7.50;99.90
53310;DHT22;39197;53.200;5.792;2023-03-20T03:11:06;7.50;99.90
53310;DHT22;39197;53.200;5.792;2023-03-20T03:16:34;7.60;99.90
53310;DHT22;39197;53.200;5.792;2023-03-20T03:19:06;7.60;99.90
53310;DHT22;39197;53.200;5.792;2023-03-20T03:21:34;7.60;99.90
53310;DHT22;39197;53.200;5.792;2023-03-20T03:24:02;7.60;99.90
53310;DHT22;39197;53.200;5.792;2023-03-20T03:26:32;7.60;99.90
53310;DHT22;39197;53.200;5.792;2023-03-20T03:29:12;7.60;99.90
53310;DHT22;39197;53.200;5.792;2023-03-20T03:31:40;7.60;99.90
53310;DHT22;39197;53.200;5.792;2023-03-20T03:34:10;7.50;99.90
53310;DHT22;39197;53.200;5.792;2023-03-20T03:44:44;7.50;99.90
53310;DHT22;39197;53.200;5.792;2023-03-20T03:47:26;7.60;99.90
53310;DHT22;39197;53.200;5.792;2023-03-20T03:50:00;7.50;99.90
53310;DHT22;39197;53.200;5.792;2023-03-20T03:52:28;7.50;99.90
53310;DHT22;39197;53.200;5.792;2023-03-20T03:55:09;7.50;99.90
53310;DHT22;39197;53.200;5.792;2023-03-20T03:57:43;7.50;99.90
53310;DHT22;39197;53.200;5.792;2023-03-20T04:00:13;7.40;99.90
53310;DHT22;39197;53.200;5.792;2023-03-20T04:02:43;7.40;99.90
53310;DHT22;39197;53.200;5.792;2023-03-20T04:05:10;7.40;99.90
53310;DHT22;39197;53.200;5.792;2023-03-20T04:07:37;7.40;99.90
53310;DHT22;39197;53.200;5.792;2023-03-20T04:10:03;7.50;99.90
53310;DHT22;39197;53.200;5.792;2023-03-20T04:12:35;7.40;99.90
53310;DHT22;39197;53.200;5.792;2023-03-20T04:15:01;7.50;99.90
53310;DHT22;39197;53.200;5.792;2023-03-20T04:17:27;7.50;99.90
53310;DHT22;39197;53.200;5.792;2023-03-20T04:19:53;7.50;99.90
53310;DHT22;39197;53.200;5.792;2023-03-20T04:22:18;7.40;99.90
53310;DHT22;39197;53.200;5.792;2023-03-20T04:24:44;7.30;99.90
53310;DHT22;39197;53.200;5.792;2023-03-20T04:27:10;7.40;99.90
53310;DHT22;39197;53.200;5.792;2023-03-20T04:29:37;7.40;99.90
53310;DHT22;39197;53.200;5.792;2023-03-20T04:32:02;7.40;99.90
53310;DHT22;39197;53.200;5.792;2023-03-20T04:34:28;7.40;99.90
53310;DHT22;39197;53.200;5.792;2023-03-20T04:36:54;7.30;99.90
53310;DHT22;39197;53.200;5.792;2023-03-20T04:39:19;7.30;99.90
53310;DHT22;39197;53.200;5.792;2023-03-20T04:41:45;7.30;99.90
53310;DHT22;39197;53.200;5.792;2023-03-20T04:44:11;7.30;99.90
53310;DHT22;39197;53.200;5.792;2023-03-20T04:46:37;7.30;99.90
53310;DHT22;39197;53.200;5.792;2023-03-20T04:49:03;7.30;99.90
53310;DHT22;39197;53.200;5.792;2023-03-20T04:51:28;7.40;99.90
53310;DHT22;39197;53.200;5.792;2023-03-20T04:53:54;7.40;99.90
53310;DHT22;39197;53.200;5.792;2023-03-20T04:56:20;7.30;99.90
53310;DHT22;39197;53.200;5.792;2023-03-20T04:58:45;7.40;99.90
53310;DHT22;39197;53.200;5.792;2023-03-20T05:01:11;7.30;99.90
53310;DHT22;39197;53.200;5.792;2023-03-20T05:03:37;7.30;99.90
53310;DHT22;39197;53.200;5.792;2023-03-20T05:06:03;7.30;99.90
53310;DHT22;39197;53.200;5.792;2023-03-20T05:08:29;7.30;99.90
53310;DHT22;39197;53.200;5.792;2023-03-20T05:10:55;7.30;99.90
53310;DHT22;39197;53.200;5.792;2023-03-20T05:13:21;7.10;99.90
53310;DHT22;39197;53.200;5.792;2023-03-20T05:15:47;7.20;99.90
53310;DHT22;39197;53.200;5.792;2023-03-20T05:18:13;7.20;99.90
53310;DHT22;39197;53.200;5.792;2023-03-20T05:20:38;7.20;99.90
53310;DHT22;39197;53.200;5.792;2023-03-20T05:23:04;7.20;99.90
53310;DHT22;39197;53.200;5.792;2023-03-20T05:25:30;7.20;99.90
53310;DHT22;39197;53.200;5.792;2023-03-20T05:27:55;7.20;99.90
53310;DHT22;39197;53.200;5.792;2023-03-20T05:30:21;7.20;99.90
53310;DHT22;39197;53.200;5.792;2023-03-20T05:32:51;7.10;99.90
53310;DHT22;39197;53.200;5.792;2023-03-20T05:35:17;7.10;99.90
53310;DHT22;39197;53.200;5.792;2023-03-20T05:37:43;7.10;99.90
53310;DHT22;39197;53.200;5.792;2023-03-20T05:40:11;7.10;99.90
53310;DHT22;39197;53.200;5.792;2023-03-20T05:42:37;7.10;99.90
53310;DHT22;39197;53.200;5.792;2023-03-20T05:45:03;7.10;99.90
53310;DHT22;39197;53.200;5.792;2023-03-20T05:47:29;7.20;99.90
53310;DHT22;39197;53.200;5.792;2023-03-20T05:49:55;7.10;99.90
53310;DHT22;39197;53.200;5.792;2023-03-20T05:52:21;7.20;99.90
53310;DHT22;39197;53.200;5.792;2023-03-20T05:54:47;7.10;99.90
53310;DHT22;39197;53.200;5.792;2023-03-20T05:57:12;7.20;99.90
53310;DHT22;39197;53.200;5.792;2023-03-20T05:59:38;7.20;99.90
53310;DHT22;39197;53.200;5.792;2023-03-20T06:02:04;7.20;99.90
53310;DHT22;39197;53.200;5.792;2023-03-20T06:04:29;7.10;99.90
53310;DHT22;39197;53.200;5.792;2023-03-20T06:06:56;7.10;99.90
53310;DHT22;39197;53.200;5.792;2023-03-20T06:09:21;7.10;99.90
53310;DHT22;39197;53.200;5.792;2023-03-20T06:11:47;7.10;99.90
53310;DHT22;39197;53.200;5.792;2023-03-20T06:14:13;7.20;99.90
53310;DHT22;39197;53.200;5.792;2023-03-20T06:16:38;7.10;99.90
53310;DHT22;39197;53.200;5.792;2023-03-20T06:19:04;7.10;99.90
53310;DHT22;39197;53.200;5.792;2023-03-20T06:21:30;7.20;99.90
53310;DHT22;39197;53.200;5.792;2023-03-20T06:23:56;7.10;99.90
53310;DHT22;39197;53.200;5.792;2023-03-20T06:26:22;7.20;99.90
53310;DHT22;39197;53.200;5.792;2023-03-20T06:28:48;7.20;99.90
53310;DHT22;39197;53.200;5.792;2023-03-20T06:31:13;7.20;99.90
53310;DHT22;39197;53.200;5.792;2023-03-20T06:33:39;7.20;99.90
53310;DHT22;39197;53.200;5.792;2023-03-20T06:36:05;7.20;99.90
53310;DHT22;39197;53.200;5.792;2023-03-20T06:38:31;7.20;99.90
53310;DHT22;39197;53.200;5.792;2023-03-20T06:40:56;7.20;99.90
53310;DHT22;39197;53.200;5.792;2023-03-20T06:43:22;7.30;99.90
53310;DHT22;39197;53.200;5.792;2023-03-20T06:45:48;7.30;99.90
53310;DHT22;39197;53.200;5.792;2023-03-20T06:48:13;7.20;99.90
53310;DHT22;39197;53.200;5.792;2023-03-20T06:50:40;7.30;99.90
53310;DHT22;39197;53.200;5.792;2023-03-20T06:53:06;7.30;99.90
53310;DHT22;39197;53.200;5.792;2023-03-20T06:55:31;7.30;99.90
53310;DHT22;39197;53.200;5.792;2023-03-20T06:57:57;7.30;99.90
53310;DHT22;39197;53.200;5.792;2023-03-20T07:00:25;7.30;99.90
53310;DHT22;39197;53.200;5.792;2023-03-20T07:02:50;7.40;99.90
53310;DHT22;39197;53.200;5.792;2023-03-20T07:05:16;7.40;99.90
53310;DHT22;39197;53.200;5.792;2023-03-20T07:07:42;7.40;99.90
53310;DHT22;39197;53.200;5.792;2023-03-20T07:10:08;7.50;99.90
53310;DHT22;39197;53.200;5.792;2023-03-20T07:12:34;7.50;99.90
53310;DHT22;39197;53.200;5.792;2023-03-20T07:15:00;7.60;99.90
53310;DHT22;39197;53.200;5.792;2023-03-20T07:17:25;7.50;99.90
53310;DHT22;39197;53.200;5.792;2023-03-20T07:19:51;7.60;99.90
53310;DHT22;39197;53.200;5.792;2023-03-20T07:22:21;7.50;99.90
53310;DHT22;39197;53.200;5.792;2023-03-20T07:24:47;7.50;99.90
53310;DHT22;39197;53.200;5.792;2023-03-20T07:27:13;7.50;99.90
53310;DHT22;39197;53.200;5.792;2023-03-20T07:29:38;7.50;99.90
53310;DHT22;39197;53.200;5.792;2023-03-20T07:32:04;7.60;99.90
53310;DHT22;39197;53.200;5.792;2023-03-20T07:34:29;7.70;99.90
53310;DHT22;39197;53.200;5.792;2023-03-20T07:36:55;7.70;99.90
53310;DHT22;39197;53.200;5.792;2023-03-20T07:39:21;7.70;99.90
53310;DHT22;39197;53.200;5.792;2023-03-20T07:41:47;7.70;99.90
53310;DHT22;39197;53.200;5.792;2023-03-20T07:44:12;7.70;99.90
53310;DHT22;39197;53.200;5.792;2023-03-20T07:46:39;7.60;99.90
53310;DHT22;39197;53.200;5.792;2023-03-20T07:49:05;7.80;99.90
53310;DHT22;39197;53.200;5.792;2023-03-20T07:51:31;7.80;99.90
53310;DHT22;39197;53.200;5.792;2023-03-20T07:53:57;7.70;99.90
53310;DHT22;39197;53.200;5.792;2023-03-20T07:56:23;7.80;99.90
53310;DHT22;39197;53.200;5.792;2023-03-20T07:58:49;7.80;99.90
53310;DHT22;39197;53.200;5.792;2023-03-20T08:01:16;7.90;99.90
53310;DHT22;39197;53.200;5.792;2023-03-20T08:03:41;8.00;99.90
53310;DHT22;39197;53.200;5.792;2023-03-20T08:06:07;8.00;99.90
53310;DHT22;39197;53.200;5.792;2023-03-20T08:08:34;8.00;99.90
53310;DHT22;39197;53.200;5.792;2023-03-20T08:11:00;8.10;99.90
53310;DHT22;39197;53.200;5.792;2023-03-20T08:13:26;8.10;99.90
53310;DHT22;39197;53.200;5.792;2023-03-20T08:15:52;8.10;99.90
53310;DHT22;39197;53.200;5.792;2023-03-20T08:18:18;8.10;99.90
53310;DHT22;39197;53.200;5.792;2023-03-20T08:20:46;8.20;99.90
53310;DHT22;39197;53.200;5.792;2023-03-20T08:23:16;8.20;99.90
53310;DHT22;39197;53.200;5.792;2023-03-20T08:25:46;8.20;99.90
53310;DHT22;39197;53.200;5.792;2023-03-20T08:28:12;8.20;99.90
53310;DHT22;39197;53.200;5.792;2023-03-20T08:30:38;8.30;99.90
53310;DHT22;39197;53.200;5.792;2023-03-20T08:33:03;8.40;99.90
53310;DHT22;39197;53.200;5.792;2023-03-20T08:35:29;8.30;99.90
53310;DHT22;39197;53.200;5.792;2023-03-20T08:37:54;8.30;99.90
53310;DHT22;39197;53.200;5.792;2023-03-20T08:40:20;8.30;99.90
53310;DHT22;39197;53.200;5.792;2023-03-20T08:42:45;8.40;99.90
53310;DHT22;39197;53.200;5.792;2023-03-20T08:45:11;8.50;99.90
53310;DHT22;39197;53.200;5.792;2023-03-20T08:47:37;8.50;99.90
53310;DHT22;39197;53.200;5.792;2023-03-20T08:50:03;8.60;99.90
53310;DHT22;39197;53.200;5.792;2023-03-20T08:52:29;8.60;99.90
53310;DHT22;39197;53.200;5.792;2023-03-20T08:54:55;8.50;99.90
53310;DHT22;39197;53.200;5.792;2023-03-20T08:57:20;8.60;99.90
53310;DHT22;39197;53.200;5.792;2023-03-20T08:59:46;8.70;99.90
53310;DHT22;39197;53.200;5.792;2023-03-20T09:02:12;8.60;99.90
53310;DHT22;39197;53.200;5.792;2023-03-20T09:04:37;8.80;99.90
53310;DHT22;39197;53.200;5.792;2023-03-20T09:07:03;8.70;99.90
53310;DHT22;39197;53.200;5.792;2023-03-20T09:09:29;8.90;99.90
53310;DHT22;39197;53.200;5.792;2023-03-20T09:11:55;8.90;99.90
53310;DHT22;39197;53.200;5.792;2023-03-20T09:14:22;9.00;99.90
53310;DHT22;39197;53.200;5.792;2023-03-20T09:16:49;9.10;99.90
53310;DHT22;39197;53.200;5.792;2023-03-20T09:19:15;9.10;99.90
53310;DHT22;39197;53.200;5.792;2023-03-20T09:21:41;9.00;99.90
53310;DHT22;39197;53.200;5.792;2023-03-20T09:24:07;9.20;99.90
53310;DHT22;39197;53.200;5.792;2023-03-20T09:26:32;9.20;99.90
53310;DHT22;39197;53.200;5.792;2023-03-20T09:28:58;9.30;99.90
53310;DHT22;39197;53.200;5.792;2023-03-20T09:31:24;9.30;99.90
53310;DHT22;39197;53.200;5.792;2023-03-20T09:33:49;9.30;99.90
53310;DHT22;39197;53.200;5.792;2023-03-20T09:36:15;9.40;99.90
53310;DHT22;39197;53.200;5.792;2023-03-20T09:38:41;9.30;99.90
53310;DHT22;39197;53.200;5.792;2023-03-20T09:41:16;9.30;99.90
53310;DHT22;39197;53.200;5.792;2023-03-20T09:46:46;9.10;99.90
53310;DHT22;39197;53.200;5.792;2023-03-20T09:54:32;9.00;99.90
53310;DHT22;39197;53.200;5.792;2023-03-20T09:57:01;9.00;99.90
53310;DHT22;39197;53.200;5.792;2023-03-20T09:59:29;9.00;99.90
53310;DHT22;39197;53.200;5.792;2023-03-20T10:02:10;9.10;99.90
53310;DHT22;39197;53.200;5.792;2023-03-20T10:04:38;9.00;99.90
53310;DHT22;39197;53.200;5.792;2023-03-20T10:07:05;8.80;99.90
53310;DHT22;39197;53.200;5.792;2023-03-20T10:09:33;8.90;99.90
53310;DHT22;39197;53.200;5.792;2023-03-20T10:12:33;8.80;99.90
53310;DHT22;39197;53.200;5.792;2023-03-20T10:18:26;8.80;99.90
53310;DHT22;39197;53.200;5.792;2023-03-20T10:20:58;8.80;99.90
53310;DHT22;39197;53.200;5.792;2023-03-20T10:23:49;8.80;99.90
53310;DHT22;39197;53.200;5.792;2023-03-20T10:26:21;8.90;99.90
53310;DHT22;39197;53.200;5.792;2023-03-20T10:29:23;8.90;99.90
53310;DHT22;39197;53.200;5.792;2023-03-20T10:37:35;8.90;99.90
53310;DHT22;39197;53.200;5.792;2023-03-20T10:42:32;8.90;99.90
53310;DHT22;39197;53.200;5.792;2023-03-20T10:45:21;8.80;99.90
53310;DHT22;39197;53.200;5.792;2023-03-20T10:47:52;8.90;99.90
53310;DHT22;39197;53.200;5.792;2023-03-20T10:50:25;9.00;99.90
53310;DHT22;39197;53.200;5.792;2023-03-20T10:52:54;8.90;99.90
53310;DHT22;39197;53.200;5.792;2023-03-20T10:55:39;8.90;99.90
53310;DHT22;39197;53.200;5.792;2023-03-20T11:00:45;8.80;99.90
53310;DHT22;39197;53.200;5.792;2023-03-20T11:03:26;8.90;99.90
53310;DHT22;39197;53.200;5.792;2023-03-20T11:06:03;8.90;99.90
53310;DHT22;39197;53.200;5.792;2023-03-20T11:08:34;8.80;99.90
53310;DHT22;39197;53.200;5.792;2023-03-20T11:11:03;8.80;99.90
53310;DHT22;39197;53.200;5.792;2023-03-20T11:13:30;8.70;99.90
53310;DHT22;39197;53.200;5.792;2023-03-20T11:15:56;8.60;99.90
53310;DHT22;39197;53.200;5.792;2023-03-20T11:18:31;8.40;99.90
53310;DHT22;39197;53.200;5.792;2023-03-20T11:20:57;8.40;99.90
53310;DHT22;39197;53.200;5.792;2023-03-20T11:23:33;8.20;99.90
53310;DHT22;39197;53.200;5.792;2023-03-20T11:26:06;8.10;99.90
53310;DHT22;39197;53.200;5.792;2023-03-20T11:28:38;8.10;99.90
53310;DHT22;39197;53.200;5.792;2023-03-20T11:31:13;8.00;99.90
53310;DHT22;39197;53.200;5.792;2023-03-20T11:34:30;7.90;99.90
53310;DHT22;39197;53.200;5.792;2023-03-20T11:36:31;7.90;99.90
53310;DHT22;39197;53.200;5.792;2023-03-20T11:39:11;7.90;99.90
53310;DHT22;39197;53.200;5.792;2023-03-20T11:41:58;7.90;99.90
53310;DHT22;39197;53.200;5.792;2023-03-20T11:44:28;7.90;99.90
53310;DHT22;39197;53.200;5.792;2023-03-20T11:47:00;7.80;99.90
53310;DHT22;39197;53.200;5.792;2023-03-20T11:49:28;7.90;99.90
53310;DHT22;39197;53.200;5.792;2023-03-20T11:52:16;7.90;99.90
53310;DHT22;39197;53.200;5.792;2023-03-20T11:55:24;7.90;99.90
53310;DHT22;39197;53.200;5.792;2023-03-20T11:57:57;7.80;99.90
53310;DHT22;39197;53.200;5.792;2023-03-20T12:00:27;7.90;99.90
53310;DHT22;39197;53.200;5.792;2023-03-20T12:02:53;7.90;99.90
53310;DHT22;39197;53.200;5.792;2023-03-20T12:05:35;7.80;99.90
53310;DHT22;39197;53.200;5.792;2023-03-20T12:10:34;7.90;99.90
53310;DHT22;39197;53.200;5.792;2023-03-20T12:13:31;7.90;99.90
53310;DHT22;39197;53.200;5.792;2023-03-20T12:16:03;7.90;99.90
53310;DHT22;39197;53.200;5.792;2023-03-20T12:18:45;7.90;99.90
53310;DHT22;39197;53.200;5.792;2023-03-20T12:24:00;7.90;99.90
53310;DHT22;39197;53.200;5.792;2023-03-20T12:26:47;7.90;99.90
53310;DHT22;39197;53.200;5.792;2023-03-20T12:32:05;7.90;99.90
53310;DHT22;39197;53.200;5.792;2023-03-20T12:34:43;7.90;99.90
53310;DHT22;39197;53.200;5.792;2023-03-20T12:37:12;7.90;99.90
53310;DHT22;39197;53.200;5.792;2023-03-20T12:39:51;7.90;99.90
53310;DHT22;39197;53.200;5.792;2023-03-20T12:42:39;7.90;99.90
53310;DHT22;39197;53.200;5.792;2023-03-20T12:50:48;7.80;99.90
53310;DHT22;39197;53.200;5.792;2023-03-20T12:53:32;7.90;99.90
53310;DHT22;39197;53.200;5.792;2023-03-20T12:56:26;7.90;99.90
53310;DHT22;39197;53.200;5.792;2023-03-20T12:59:12;7.90;99.90
53310;DHT22;39197;53.200;5.792;2023-03-20T13:17:51;7.90;99.90
53310;DHT22;39197;53.200;5.792;2023-03-20T13:20:24;7.90;99.90
53310;DHT22;39197;53.200;5.792;2023-03-20T13:28:50;8.00;99.90
53310;DHT22;39197;53.200;5.792;2023-03-20T13:31:35;8.00;99.90
53310;DHT22;39197;53.200;5.792;2023-03-20T13:37:20;8.00;99.90
53310;DHT22;39197;53.200;5.792;2023-03-20T13:40:12;8.10;99.90
53310;DHT22;39197;53.200;5.792;2023-03-20T13:42:56;8.10;99.90
53310;DHT22;39197;53.200;5.792;2023-03-20T13:45:28;8.10;99.90
53310;DHT22;39197;53.200;5.792;2023-03-20T13:47:55;8.10;99.90
53310;DHT22;39197;53.200;5.792;2023-03-20T13:50:41;8.10;99.90
53310;DHT22;39197;53.200;5.792;2023-03-20T13:53:15;8.10;99.90
53310;DHT22;39197;53.200;5.792;2023-03-20T14:01:20;8.10;99.90
53310;DHT22;39197;53.200;5.792;2023-03-20T14:03:48;8.10;99.90
53310;DHT22;39197;53.200;5.792;2023-03-20T14:08:53;8.10;99.90
53310;DHT22;39197;53.200;5.792;2023-03-20T14:14:13;8.10;99.90
53310;DHT22;39197;53.200;5.792;2023-03-20T14:16:40;8.10;99.90
53310;DHT22;39197;53.200;5.792;2023-03-20T14:19:17;8.20;99.90
53310;DHT22;39197;53.200;5.792;2023-03-20T14:21:49;8.20;99.90
53310;DHT22;39197;53.200;5.792;2023-03-20T14:24:17;8.20;99.90
53310;DHT22;39197;53.200;5.792;2023-03-20T14:26:49;8.10;99.90
53310;DHT22;39197;53.200;5.792;2023-03-20T14:31:42;8.20;99.90
53310;DHT22;39197;53.200;5.792;2023-03-20T14:34:21;8.30;99.90
53310;DHT22;39197;53.200;5.792;2023-03-20T14:37:01;8.20;99.90
53310;DHT22;39197;53.200;5.792;2023-03-20T14:39:51;8.20;99.90
53310;DHT22;39197;53.200;5.792;2023-03-20T14:42:50;8.20;99.90
53310;DHT22;39197;53.200;5.792;2023-03-20T14:45:39;8.20;99.90
53310;DHT22;39197;53.200;5.792;2023-03-20T14:53:23;8.20;99.90
53310;DHT22;39197;53.200;5.792;2023-03-20T14:56:04;8.20;99.90
53310;DHT22;39197;53.200;5.792;2023-03-20T15:01:24;8.10;99.90
53310;DHT22;39197;53.200;5.792;2023-03-20T15:06:29;8.20;99.90
53310;DHT22;39197;53.200;5.792;2023-03-20T15:09:04;8.20;99.90
53310;DHT22;39197;53.200;5.792;2023-03-20T15:11:32;8.20;99.90
53310;DHT22;39197;53.200;5.792;2023-03-20T15:14:00;8.20;99.90
53310;DHT22;39197;53.200;5.792;2023-03-20T15:16:29;8.20;99.90
53310;DHT22;39197;53.200;5.792;2023-03-20T15:18:56;8.20;99.90
53310;DHT22;39197;53.200;5.792;2023-03-20T15:21:35;8.20;99.90
53310;DHT22;39197;53.200;5.792;2023-03-20T15:24:01;8.20;99.90
53310;DHT22;39197;53.200;5.792;2023-03-20T15:26:29;8.20;99.90
53310;DHT22;39197;53.200;5.792;2023-03-20T15:29:04;8.20;99.90
53310;DHT22;39197;53.200;5.792;2023-03-20T15:31:33;8.20;99.90
53310;DHT22;39197;53.200;5.792;2023-03-20T15:34:01;8.30;99.90
53310;DHT22;39197;53.200;5.792;2023-03-20T15:36:30;8.30;99.90
53310;DHT22;39197;53.200;5.792;2023-03-20T15:39:16;8.20;99.90
53310;DHT22;39197;53.200;5.792;2023-03-20T15:41:49;8.30;99.90
53310;DHT22;39197;53.200;5.792;2023-03-20T15:46:49;8.30;99.90
53310;DHT22;39197;53.200;5.792;2023-03-20T15:49:18;8.30;99.90
53310;DHT22;39197;53.200;5.792;2023-03-20T15:51:44;8.30;99.90
53310;DHT22;39197;53.200;5.792;2023-03-20T15:54:13;8.30;99.90
53310;DHT22;39197;53.200;5.792;2023-03-20T15:56:45;8.40;99.90
53310;DHT22;39197;53.200;5.792;2023-03-20T15:59:17;8.40;99.90
53310;DHT22;39197;53.200;5.792;2023-03-20T16:01:44;8.40;99.90
53310;DHT22;39197;53.200;5.792;2023-03-20T16:04:16;8.30;99.90
53310;DHT22;39197;53.200;5.792;2023-03-20T16:06:58;8.30;99.90
53310;DHT22;39197;53.200;5.792;2023-03-20T16:09:25;8.40;99.90
53310;DHT22;39197;53.200;5.792;2023-03-20T16:12:00;8.40;99.90
53310;DHT22;39197;53.200;5.792;2023-03-20T16:14:31;8.40;99.90
53310;DHT22;39197;53.200;5.792;2023-03-20T16:16:59;8.40;99.90
53310;DHT22;39197;53.200;5.792;2023-03-20T16:19:27;8.40;99.90
53310;DHT22;39197;53.200;5.792;2023-03-20T16:22:00;8.40;99.90
53310;DHT22;39197;53.200;5.792;2023-03-20T16:24:35;8.40;99.90
53310;DHT22;39197;53.200;5.792;2023-03-20T16:27:06;8.40;99.90
53310;DHT22;39197;53.200;5.792;2023-03-20T16:29:32;8.30;99.90
53310;DHT22;39197;53.200;5.792;2023-03-20T16:32:02;8.30;99.90
53310;DHT22;39197;53.200;5.792;2023-03-20T16:34:34;8.30;99.90
53310;DHT22;39197;53.200;5.792;2023-03-20T16:37:06;8.40;99.90
53310;DHT22;39197;53.200;5.792;2023-03-20T16:39:32;8.30;99.90
53310;DHT22;39197;53.200;5.792;2023-03-20T16:42:01;8.30;99.90
53310;DHT22;39197;53.200;5.792;2023-03-20T16:44:31;8.30;99.90
53310;DHT22;39197;53.200;5.792;2023-03-20T16:52:09;8.30;99.90
53310;DHT22;39197;53.200;5.792;2023-03-20T16:54:36;8.30;99.90
53310;DHT22;39197;53.200;5.792;2023-03-20T16:57:07;8.30;99.90
53310;DHT22;39197;53.200;5.792;2023-03-20T16:59:37;8.30;99.90
53310;DHT22;39197;53.200;5.792;2023-03-20T17:02:31;8.30;99.90
53310;DHT22;39197;53.200;5.792;2023-03-20T17:05:01;8.30;99.90
53310;DHT22;39197;53.200;5.792;2023-03-20T17:07:27;8.30;99.90
53310;DHT22;39197;53.200;5.792;2023-03-20T17:09:59;8.30;99.90
53310;DHT22;39197;53.200;5.792;2023-03-20T17:12:30;8.30;99.90
53310;DHT22;39197;53.200;5.792;2023-03-20T17:14:56;8.30;99.90
53310;DHT22;39197;53.200;5.792;2023-03-20T17:17:23;8.30;99.90
53310;DHT22;39197;53.200;5.792;2023-03-20T17:19:50;8.40;99.90
53310;DHT22;39197;53.200;5.792;2023-03-20T17:22:23;8.30;99.90
53310;DHT22;39197;53.200;5.792;2023-03-20T17:24:50;8.30;99.90
53310;DHT22;39197;53.200;5.792;2023-03-20T17:27:16;8.40;99.90
53310;DHT22;39197;53.200;5.792;2023-03-20T17:29:43;8.30;99.90
53310;DHT22;39197;53.200;5.792;2023-03-20T17:32:18;8.40;99.90
53310;DHT22;39197;53.200;5.792;2023-03-20T17:34:44;8.30;99.90
53310;DHT22;39197;53.200;5.792;2023-03-20T17:37:12;8.30;99.90
53310;DHT22;39197;53.200;5.792;2023-03-20T17:39:39;8.30;99.90
53310;DHT22;39197;53.200;5.792;2023-03-20T17:42:17;8.40;99.90
53310;DHT22;39197;53.200;5.792;2023-03-20T17:44:43;8.30;99.90
53310;DHT22;39197;53.200;5.792;2023-03-20T17:47:17;8.30;99.90
53310;DHT22;39197;53.200;5.792;2023-03-20T17:49:43;8.30;99.90
53310;DHT22;39197;53.200;5.792;2023-03-20T17:52:17;8.40;99.90
53310;DHT22;39197;53.200;5.792;2023-03-20T17:54:44;8.30;99.90
53310;DHT22;39197;53.200;5.792;2023-03-20T17:57:31;8.30;99.90
53310;DHT22;39197;53.200;5.792;2023-03-20T17:59:59;8.40;99.90
53310;DHT22;39197;53.200;5.792;2023-03-20T18:02:25;8.40;99.90
53310;DHT22;39197;53.200;5.792;2023-03-20T18:04:50;8.30;99.90
53310;DHT22;39197;53.200;5.792;2023-03-20T18:07:17;8.30;99.90
53310;DHT22;39197;53.200;5.792;2023-03-20T18:09:43;8.30;99.90
53310;DHT22;39197;53.200;5.792;2023-03-20T18:12:11;8.30;99.90
53310;DHT22;39197;53.200;5.792;2023-03-20T18:14:37;8.30;99.90
53310;DHT22;39197;53.200;5.792;2023-03-20T18:17:03;8.30;99.90
53310;DHT22;39197;53.200;5.792;2023-03-20T18:19:28;8.40;99.90
53310;DHT22;39197;53.200;5.792;2023-03-20T18:21:55;8.30;99.90
53310;DHT22;39197;53.200;5.792;2023-03-20T18:24:21;8.30;99.90
53310;DHT22;39197;53.200;5.792;2023-03-20T18:26:48;8.30;99.90